Time;durP1;ratioP1;P1;durP2;ratioP2;P2;SDS_P1;SDS_P2;PMS_P1;PMS_P2;Temp;Humidity;BMP_temperature;BMP_pressure;BME280_temperature;BME280_humidity;BME280_pressure;Samples;Min_cycle;Max_cycle;Signal;HPM_P1;HPM_P2
2023/03/06 00:00:39;;;;;;;13.67;6.93;;;7.50;72.00;;;;;;4963539;28;20221;-75
2023/03/06 00:03:09;;;;;;;14.70;7.20;;;7.50;72.40;;;;;;4955290;28;20236;-75
2023/03/06 00:05:37;;;;;;;12.80;6.83;;;7.40;72.50;;;;;;4958132;28;20643;-75
2023/03/06 00:08:06;;;;;;;13.20;6.93;;;7.40;72.50;;;;;;4958238;28;20209;-74
2023/03/06 00:10:35;;;;;;;15.40;7.00;;;7.40;72.70;;;;;;4967897;28;20225;-75
2023/03/06 00:13:06;;;;;;;11.90;6.50;;;7.30;72.80;;;;;;4956271;28;20198;-74
2023/03/06 00:15:34;;;;;;;15.57;7.43;;;7.30;72.80;;;;;;4967022;28;20198;-75
2023/03/06 00:18:04;;;;;;;15.23;7.37;;;7.30;72.90;;;;;;4973278;28;20214;-75
2023/03/06 00:20:35;;;;;;;11.33;6.00;;;7.30;73.00;;;;;;4966260;28;20212;-75
2023/03/06 00:23:04;;;;;;;11.83;6.50;;;7.30;73.00;;;;;;4959786;28;20201;-75
2023/03/06 00:25:35;;;;;;;13.37;6.87;;;7.30;73.00;;;;;;4962687;28;20225;-75
2023/03/06 00:28:04;;;;;;;13.97;6.90;;;7.30;73.00;;;;;;4970677;28;20194;-75
2023/03/06 00:30:32;;;;;;;13.90;6.90;;;7.30;73.10;;;;;;4970878;28;20201;-75
2023/03/06 00:33:00;;;;;;;16.30;6.30;;;7.30;73.00;;;;;;4959242;28;20201;-75
2023/03/06 00:35:29;;;;;;;12.57;6.40;;;7.40;73.00;;;;;;4975456;28;20240;-75
2023/03/06 00:37:59;;;;;;;12.80;6.37;;;7.40;73.10;;;;;;4966125;28;20201;-75
2023/03/06 00:40:27;;;;;;;11.27;5.73;;;7.40;73.00;;;;;;4967862;28;20211;-75
2023/03/06 00:42:55;;;;;;;11.57;5.87;;;7.40;73.00;;;;;;4964226;28;20203;-75
2023/03/06 00:45:24;;;;;;;13.50;7.00;;;7.40;72.90;;;;;;4958657;28;20198;-75
2023/03/06 00:47:52;;;;;;;14.67;7.37;;;7.40;72.90;;;;;;4956529;28;20198;-76
2023/03/06 00:50:20;;;;;;;12.20;5.60;;;7.40;73.00;;;;;;4952090;28;20773;-75
2023/03/06 00:52:49;;;;;;;15.10;7.17;;;7.40;73.10;;;;;;4956762;28;20216;-75
2023/03/06 00:55:21;;;;;;;12.57;6.30;;;7.40;73.10;;;;;;4953760;28;20220;-76
2023/03/06 00:57:49;;;;;;;11.37;6.17;;;7.40;73.20;;;;;;4964336;28;20284;-77
2023/03/06 01:00:19;;;;;;;12.07;5.73;;;7.40;73.30;;;;;;4962702;28;20201;-76
2023/03/06 01:02:47;;;;;;;11.80;6.37;;;7.40;73.30;;;;;;4966828;28;20233;-76
2023/03/06 01:05:16;;;;;;;11.93;6.77;;;7.40;73.30;;;;;;4969334;28;20190;-76
2023/03/06 01:07:44;;;;;;;13.87;5.87;;;7.40;73.40;;;;;;4960523;28;20217;-77
2023/03/06 01:10:13;;;;;;;11.83;6.30;;;7.30;73.40;;;;;;4966518;28;20237;-76
2023/03/06 01:12:42;;;;;;;13.67;6.50;;;7.30;73.50;;;;;;4963028;28;20216;-76
2023/03/06 01:15:12;;;;;;;11.43;5.90;;;7.30;73.60;;;;;;4973083;28;20213;-76
2023/03/06 01:17:41;;;;;;;11.40;5.57;;;7.30;73.60;;;;;;4965342;28;20205;-76
2023/03/06 01:20:13;;;;;;;11.53;5.87;;;7.30;73.70;;;;;;4975183;28;20529;-76
2023/03/06 01:22:41;;;;;;;16.17;6.17;;;7.30;73.70;;;;;;4977290;28;20197;-76
2023/03/06 01:25:11;;;;;;;11.87;6.03;;;7.30;73.80;;;;;;4967078;28;20300;-76
2023/03/06 01:27:41;;;;;;;11.30;5.57;;;7.20;73.80;;;;;;4969796;28;20224;-76
2023/03/06 01:30:12;;;;;;;10.90;5.50;;;7.20;73.80;;;;;;4973556;28;20202;-75
2023/03/06 01:32:41;;;;;;;14.53;7.27;;;7.20;73.90;;;;;;4968157;28;20222;-76
2023/03/06 01:35:10;;;;;;;14.47;6.83;;;7.20;73.90;;;;;;4964299;28;20221;-76
2023/03/06 01:37:39;;;;;;;13.37;5.83;;;7.20;74.00;;;;;;4967313;28;20285;-76
2023/03/06 01:40:09;;;;;;;12.97;6.63;;;7.20;74.10;;;;;;4977222;28;20198;-76
2023/03/06 01:42:38;;;;;;;11.93;6.13;;;7.20;74.10;;;;;;4968292;28;20204;-77
2023/03/06 01:45:09;;;;;;;15.70;7.13;;;7.10;74.10;;;;;;4970247;28;20199;-77
2023/03/06 01:47:38;;;;;;;13.93;6.43;;;7.20;74.10;;;;;;4962976;28;20213;-76
2023/03/06 01:50:10;;;;;;;12.87;6.77;;;7.10;74.10;;;;;;4964473;28;20200;-76
2023/03/06 01:52:43;;;;;;;14.80;7.07;;;7.10;74.10;;;;;;4966608;28;20205;-76
2023/03/06 01:55:15;;;;;;;11.53;5.60;;;7.10;74.20;;;;;;4970133;28;20192;-77
2023/03/06 01:57:47;;;;;;;13.00;6.50;;;7.10;74.30;;;;;;4972395;28;20206;-75
2023/03/06 02:00:17;;;;;;;15.90;7.57;;;7.10;74.40;;;;;;4970897;28;20205;-77
2023/03/06 02:02:53;;;;;;;12.40;6.20;;;7.10;74.50;;;;;;4960675;28;20475;-78
2023/03/06 02:05:25;;;;;;;15.83;7.87;;;7.10;74.60;;;;;;4964871;28;20209;-77
2023/03/06 02:07:54;;;;;;;15.43;6.57;;;7.00;74.50;;;;;;4965276;28;20213;-76
2023/03/06 02:10:23;;;;;;;13.53;6.80;;;7.00;74.60;;;;;;4974534;28;20215;-76
2023/03/06 02:12:53;;;;;;;14.70;6.90;;;7.00;74.70;;;;;;4959158;28;20195;-76
2023/03/06 02:15:24;;;;;;;10.27;4.93;;;7.00;74.70;;;;;;4969744;28;20200;-76
2023/03/06 02:17:54;;;;;;;14.23;6.67;;;7.00;74.80;;;;;;4967342;28;20201;-76
2023/03/06 02:20:28;;;;;;;13.13;6.67;;;7.00;74.80;;;;;;4969658;28;20233;-76
2023/03/06 02:23:04;;;;;;;14.10;6.63;;;7.00;74.80;;;;;;4958716;28;20203;-75
2023/03/06 02:25:40;;;;;;;15.30;7.17;;;7.00;74.80;;;;;;4960448;28;20224;-76
2023/03/06 02:28:11;;;;;;;17.93;6.77;;;7.00;74.80;;;;;;4965742;28;20260;-76
2023/03/06 02:30:40;;;;;;;11.83;6.43;;;7.00;74.80;;;;;;4963541;28;20206;-75
2023/03/06 02:33:12;;;;;;;13.77;6.07;;;7.00;74.70;;;;;;4956069;28;20763;-75
2023/03/06 02:35:46;;;;;;;19.77;6.10;;;7.00;74.60;;;;;;4956650;28;20203;-75
2023/03/06 02:38:17;;;;;;;14.57;6.20;;;7.00;74.60;;;;;;4958168;28;20228;-76
2023/03/06 02:40:50;;;;;;;13.23;5.83;;;7.00;74.60;;;;;;4963354;29;20200;-75
2023/03/06 02:43:22;;;;;;;14.53;6.33;;;7.00;74.50;;;;;;4958475;28;20207;-76
2023/03/06 02:45:51;;;;;;;15.77;6.73;;;7.00;74.50;;;;;;4961406;28;20229;-76
2023/03/06 02:48:20;;;;;;;13.50;6.03;;;7.00;74.40;;;;;;4954523;28;20235;-78
2023/03/06 02:50:49;;;;;;;13.50;6.80;;;7.00;74.50;;;;;;4948107;28;21834;-76
2023/03/06 02:53:19;;;;;;;13.00;6.53;;;7.00;74.40;;;;;;4956984;28;20182;-76
2023/03/06 02:55:49;;;;;;;14.43;6.77;;;7.00;74.40;;;;;;4959160;28;20199;-76
2023/03/06 02:58:19;;;;;;;13.97;7.00;;;7.00;74.40;;;;;;4964601;28;20224;-76
2023/03/06 03:00:48;;;;;;;13.10;6.20;;;7.00;74.40;;;;;;4959052;28;20289;-76
2023/03/06 03:03:16;;;;;;;12.33;6.33;;;7.00;74.30;;;;;;4962065;28;20209;-76
2023/03/06 03:05:44;;;;;;;15.00;6.30;;;7.10;75.10;;;;;;4956830;28;20279;-76
2023/03/06 03:08:13;;;;;;;12.23;6.43;;;7.00;74.20;;;;;;4958563;28;20219;-76
2023/03/06 03:10:42;;;;;;;12.80;6.70;;;7.00;74.10;;;;;;4961506;28;20866;-75
2023/03/06 03:13:13;;;;;;;12.43;6.30;;;7.00;74.10;;;;;;4960099;28;20224;-76
2023/03/06 03:15:42;;;;;;;12.87;6.37;;;7.00;74.00;;;;;;4960349;28;21246;-76
2023/03/06 03:18:11;;;;;;;13.63;7.00;;;7.00;74.00;;;;;;4966117;28;20433;-77
2023/03/06 03:20:42;;;;;;;15.67;7.70;;;7.00;74.10;;;;;;4972321;28;20191;-76
2023/03/06 03:23:10;;;;;;;13.63;7.20;;;6.90;74.20;;;;;;4956582;28;20737;-76
2023/03/06 03:25:39;;;;;;;12.57;6.37;;;6.90;74.50;;;;;;4963834;28;20911;-74
2023/03/06 03:28:07;;;;;;;11.73;6.20;;;6.90;74.80;;;;;;4965214;28;20376;-78
2023/03/06 03:30:39;;;;;;;13.57;7.50;;;6.80;74.90;;;;;;4969849;28;20449;-75
2023/03/06 03:33:08;;;;;;;13.23;7.30;;;6.80;75.50;;;;;;4958914;28;20284;-75
2023/03/06 03:35:36;;;;;;;12.10;6.67;;;6.80;75.40;;;;;;4959532;28;20664;-76
2023/03/06 03:38:05;;;;;;;14.47;6.83;;;6.80;75.30;;;;;;4953863;28;20200;-76
2023/03/06 03:40:33;;;;;;;14.47;7.20;;;6.80;75.20;;;;;;4962095;28;20806;-76
2023/03/06 03:43:01;;;;;;;12.73;6.70;;;6.80;75.20;;;;;;4964882;28;20214;-77
2023/03/06 03:45:30;;;;;;;12.07;6.53;;;6.80;75.20;;;;;;4965183;28;20198;-75
2023/03/06 03:48:00;;;;;;;11.13;6.13;;;6.80;75.30;;;;;;4961870;28;20773;-75
2023/03/06 03:50:28;;;;;;;14.27;6.03;;;6.70;75.10;;;;;;4959321;28;20204;-77
2023/03/06 03:52:56;;;;;;;17.30;6.87;;;6.80;75.20;;;;;;4956733;28;20196;-75
2023/03/06 03:55:25;;;;;;;13.10;6.23;;;6.70;75.00;;;;;;4964620;28;20229;-75
2023/03/06 03:57:53;;;;;;;17.70;6.87;;;6.80;75.10;;;;;;4954625;28;20184;-75
2023/03/06 04:00:22;;;;;;;13.13;6.30;;;6.70;75.00;;;;;;4961392;28;20209;-75
2023/03/06 04:02:50;;;;;;;13.30;7.30;;;6.70;75.00;;;;;;4960031;28;20204;-76
2023/03/06 04:05:20;;;;;;;14.03;6.67;;;6.70;75.00;;;;;;4963838;28;20204;-76
2023/03/06 04:07:48;;;;;;;13.43;6.60;;;6.70;75.00;;;;;;4957571;28;20295;-76
2023/03/06 04:10:17;;;;;;;13.97;5.97;;;6.70;75.00;;;;;;4954747;28;21141;-75
2023/03/06 04:12:45;;;;;;;15.87;7.00;;;6.70;75.70;;;;;;4956383;28;20207;-75
2023/03/06 04:15:14;;;;;;;13.03;6.03;;;6.70;74.80;;;;;;4965149;28;20253;-76
2023/03/06 04:17:42;;;;;;;15.07;7.40;;;6.70;74.80;;;;;;4962633;28;20192;-76
2023/03/06 04:20:11;;;;;;;17.37;6.67;;;6.70;74.90;;;;;;4951063;28;20300;-75
2023/03/06 04:22:41;;;;;;;15.50;7.07;;;6.70;74.80;;;;;;4957774;28;20199;-75
2023/03/06 04:25:10;;;;;;;14.73;6.57;;;6.70;74.80;;;;;;4966455;28;20203;-76
2023/03/06 04:27:39;;;;;;;13.27;6.30;;;6.70;74.80;;;;;;4960445;29;20254;-76
2023/03/06 04:30:09;;;;;;;11.07;6.00;;;6.60;74.70;;;;;;4958919;28;20207;-76
2023/03/06 04:32:37;;;;;;;17.43;6.70;;;6.60;74.60;;;;;;4960215;28;20302;-76
2023/03/06 04:35:06;;;;;;;13.17;6.57;;;6.60;74.70;;;;;;4958346;28;20689;-76
2023/03/06 04:37:35;;;;;;;16.43;6.87;;;6.60;74.70;;;;;;4966601;28;20258;-76
2023/03/06 04:40:06;;;;;;;12.23;6.40;;;6.60;74.60;;;;;;4959991;28;20723;-75
2023/03/06 04:42:34;;;;;;;17.87;8.37;;;6.60;74.70;;;;;;4965236;28;20215;-76
2023/03/06 04:45:02;;;;;;;11.80;6.53;;;6.50;74.70;;;;;;4964109;28;20197;-76
2023/03/06 04:47:31;;;;;;;11.40;6.40;;;6.60;74.70;;;;;;4964110;28;20269;-76
2023/03/06 04:49:59;;;;;;;13.63;6.70;;;6.50;74.70;;;;;;4960742;28;20804;-76
2023/03/06 04:52:27;;;;;;;17.03;7.67;;;6.50;74.70;;;;;;4951835;28;20635;-75
2023/03/06 04:54:56;;;;;;;11.67;6.73;;;6.50;74.70;;;;;;4948583;28;20223;-75
2023/03/06 04:57:26;;;;;;;13.73;7.40;;;6.40;74.80;;;;;;4948952;28;20207;-78
2023/03/06 04:59:54;;;;;;;23.17;8.27;;;6.50;74.90;;;;;;4952701;28;20199;-75
2023/03/06 05:02:23;;;;;;;14.27;6.90;;;6.40;75.00;;;;;;4956941;28;20213;-75
2023/03/06 05:04:51;;;;;;;17.50;7.27;;;6.40;75.00;;;;;;4961388;28;20202;-77
2023/03/06 05:07:20;;;;;;;14.97;7.30;;;6.40;75.10;;;;;;4955289;28;20199;-76
2023/03/06 05:09:48;;;;;;;15.67;7.47;;;6.50;75.20;;;;;;4955723;28;20456;-75
2023/03/06 05:12:17;;;;;;;15.53;7.07;;;6.50;75.40;;;;;;4959460;28;20254;-76
2023/03/06 05:14:46;;;;;;;13.20;7.37;;;6.50;75.50;;;;;;4954244;28;20257;-76
2023/03/06 05:17:15;;;;;;;15.30;7.40;;;6.50;75.70;;;;;;4954772;28;20555;-75
2023/03/06 05:19:43;;;;;;;16.97;7.37;;;6.50;76.00;;;;;;4956738;28;20203;-75
2023/03/06 05:22:11;;;;;;;18.10;7.57;;;6.50;76.40;;;;;;4960037;28;20195;-76
2023/03/06 05:24:40;;;;;;;15.30;6.73;;;6.50;76.60;;;;;;4954074;28;20200;-75
2023/03/06 05:27:08;;;;;;;17.50;7.47;;;6.50;76.90;;;;;;4954337;28;20222;-76
2023/03/06 05:29:37;;;;;;;18.97;7.37;;;6.40;77.20;;;;;;4950229;28;20270;-76
2023/03/06 05:32:07;;;;;;;20.50;8.50;;;6.40;77.70;;;;;;4957326;28;20210;-77
2023/03/06 05:34:36;;;;;;;17.13;7.37;;;6.40;77.70;;;;;;4958362;28;20267;-76
2023/03/06 05:37:04;;;;;;;19.30;9.10;;;6.50;77.60;;;;;;4952905;28;20195;-75
2023/03/06 05:39:32;;;;;;;24.50;12.10;;;6.40;77.70;;;;;;4955814;28;20195;-76
2023/03/06 05:42:01;;;;;;;23.23;14.23;;;6.50;77.90;;;;;;4961796;28;20224;-76
2023/03/06 05:44:32;;;;;;;20.77;10.13;;;6.50;77.70;;;;;;4961180;28;20199;-76
2023/03/06 05:47:00;;;;;;;24.80;10.27;;;6.60;77.80;;;;;;4952305;28;20203;-75
2023/03/06 05:49:35;;;;;;;20.80;10.17;;;6.60;77.70;;;;;;4957052;28;20226;-76
2023/03/06 05:52:04;;;;;;;16.13;8.40;;;6.70;77.70;;;;;;4959255;28;20661;-76
2023/03/06 05:54:34;;;;;;;18.83;9.77;;;6.80;77.60;;;;;;4949350;28;20207;-75
2023/03/06 05:57:04;;;;;;;18.30;8.30;;;6.80;77.50;;;;;;4960817;28;20203;-75
2023/03/06 05:59:32;;;;;;;19.33;7.90;;;6.90;77.30;;;;;;4955465;28;20202;-75
2023/03/06 06:02:04;;;;;;;19.13;7.93;;;6.90;77.20;;;;;;4949233;28;20202;-75
2023/03/06 06:04:34;;;;;;;18.03;7.43;;;6.90;77.00;;;;;;4953224;28;20200;-75
2023/03/06 06:07:04;;;;;;;14.50;8.03;;;6.90;76.90;;;;;;4949133;28;20437;-75
2023/03/06 06:09:34;;;;;;;16.43;7.23;;;6.90;76.80;;;;;;4950475;28;20715;-75
2023/03/06 06:12:03;;;;;;;17.77;7.57;;;6.90;76.70;;;;;;4957577;28;20236;-74
2023/03/06 06:14:34;;;;;;;17.33;7.50;;;6.90;76.60;;;;;;4955712;28;20211;-75
2023/03/06 06:17:02;;;;;;;14.53;7.73;;;6.90;76.70;;;;;;4963162;28;20235;-76
2023/03/06 06:19:31;;;;;;;16.40;7.53;;;6.80;76.70;;;;;;4953956;28;20263;-76
2023/03/06 06:22:02;;;;;;;14.73;7.70;;;6.90;76.70;;;;;;4968426;28;21916;-75
2023/03/06 06:24:31;;;;;;;17.17;7.93;;;6.90;76.80;;;;;;4962460;28;20224;-75
2023/03/06 06:27:00;;;;;;;16.03;7.90;;;7.00;77.00;;;;;;4958074;28;20255;-76
2023/03/06 06:29:32;;;;;;;16.80;7.03;;;7.10;77.00;;;;;;4967868;28;20222;-75
2023/03/06 06:32:01;;;;;;;17.67;7.37;;;7.20;76.90;;;;;;4958080;28;20197;-74
2023/03/06 06:34:30;;;;;;;13.50;6.53;;;7.30;77.10;;;;;;4949300;28;20201;-74
2023/03/06 06:36:59;;;;;;;14.90;7.50;;;7.50;77.10;;;;;;4963289;28;20206;-75
2023/03/06 06:39:29;;;;;;;12.80;6.63;;;7.60;76.90;;;;;;4965728;28;20197;-75
2023/03/06 06:41:57;;;;;;;14.20;6.90;;;7.80;76.80;;;;;;4960142;28;20216;-77
2023/03/06 06:44:46;;;;;;;15.10;6.80;;;7.90;76.80;;;;;;4961880;28;20262;-76
2023/03/06 06:47:14;;;;;;;13.47;7.10;;;8.10;76.30;;;;;;4961108;28;20216;-76
2023/03/06 06:49:54;;;;;;;11.13;5.93;;;8.30;76.00;;;;;;4952641;28;20799;-74
2023/03/06 06:52:22;;;;;;;14.53;7.07;;;8.40;75.70;;;;;;4956143;28;20198;-77
2023/03/06 06:54:53;;;;;;;14.17;7.17;;;8.60;75.20;;;;;;4955335;28;20205;-76
2023/03/06 06:57:21;;;;;;;13.57;7.27;;;8.70;74.70;;;;;;4967173;28;20202;-76
2023/03/06 06:59:50;;;;;;;13.93;6.67;;;8.80;74.50;;;;;;4960291;28;20198;-75
2023/03/06 07:02:21;;;;;;;12.97;6.70;;;8.90;74.50;;;;;;4964363;28;20213;-75
2023/03/06 07:04:49;;;;;;;13.57;6.27;;;9.00;74.40;;;;;;4955293;28;20215;-77
2023/03/06 07:07:31;;;;;;;13.83;6.87;;;9.20;74.50;;;;;;4963389;28;20212;-77
2023/03/06 07:10:01;;;;;;;15.73;6.97;;;9.10;71.90;;;;;;4958745;28;20278;-77
2023/03/06 07:12:31;;;;;;;14.03;7.30;;;9.10;72.30;;;;;;4961969;28;20229;-77
2023/03/06 07:15:00;;;;;;;16.67;7.37;;;9.10;72.10;;;;;;4951236;28;20269;-77
2023/03/06 07:17:29;;;;;;;11.30;6.33;;;9.00;71.90;;;;;;4964993;28;20200;-76
2023/03/06 07:19:58;;;;;;;20.07;7.10;;;9.00;72.00;;;;;;4946652;28;20269;-76
2023/03/06 07:22:27;;;;;;;15.50;6.90;;;9.00;72.10;;;;;;4961224;28;20198;-76
2023/03/06 07:25:14;;;;;;;12.77;7.23;;;9.00;72.30;;;;;;4976868;28;20194;-77
2023/03/06 07:27:43;;;;;;;14.30;6.73;;;9.00;72.50;;;;;;4961701;28;20228;-76
2023/03/06 07:30:20;;;;;;;14.00;7.70;;;9.10;72.70;;;;;;4964641;28;20218;-78
2023/03/06 07:32:48;;;;;;;14.20;6.70;;;9.10;72.70;;;;;;4977974;28;20266;-77
2023/03/06 07:35:18;;;;;;;14.70;7.67;;;9.00;72.50;;;;;;4970367;28;20214;-76
2023/03/06 07:37:48;;;;;;;19.40;8.27;;;9.10;72.80;;;;;;4965926;28;20285;-77
2023/03/06 07:40:19;;;;;;;17.30;9.17;;;9.10;72.80;;;;;;4965269;28;20194;-76
2023/03/06 07:42:50;;;;;;;19.27;8.77;;;9.10;72.60;;;;;;4960364;29;20226;-76
2023/03/06 07:45:18;;;;;;;20.70;9.47;;;9.20;73.00;;;;;;4959916;28;20202;-77
2023/03/06 07:47:46;;;;;;;18.27;8.03;;;9.20;72.50;;;;;;4968642;29;20339;-76
2023/03/06 07:50:15;;;;;;;19.70;8.93;;;9.20;72.80;;;;;;4953701;28;20223;-76
2023/03/06 07:52:43;;;;;;;17.17;8.73;;;9.20;72.80;;;;;;4952833;28;20186;-77
2023/03/06 07:55:12;;;;;;;23.10;9.63;;;9.30;72.50;;;;;;4959675;28;20651;-76
2023/03/06 07:57:42;;;;;;;20.53;8.20;;;9.30;72.20;;;;;;4966612;28;20198;-77
2023/03/06 08:00:12;;;;;;;20.20;9.17;;;9.30;72.10;;;;;;4968934;28;20191;-76
2023/03/06 08:02:42;;;;;;;29.80;9.43;;;9.40;72.00;;;;;;4950194;28;20239;-77
2023/03/06 08:05:15;;;;;;;21.07;10.00;;;9.40;71.60;;;;;;4957846;28;20545;-78
2023/03/06 08:07:44;;;;;;;18.23;8.93;;;9.40;71.90;;;;;;4965603;28;20204;-75
2023/03/06 08:10:16;;;;;;;20.57;9.30;;;9.40;72.10;;;;;;4955282;28;20222;-75
2023/03/06 08:12:46;;;;;;;15.70;8.07;;;9.50;71.90;;;;;;4963657;28;20543;-77
2023/03/06 08:15:15;;;;;;;20.93;8.77;;;9.50;71.80;;;;;;4958778;28;20204;-77
2023/03/06 08:17:43;;;;;;;18.93;8.73;;;9.50;71.90;;;;;;4966885;28;20206;-76
2023/03/06 08:20:13;;;;;;;20.13;9.75;;;9.60;71.60;;;;;;4968795;28;21173;-76
2023/03/06 08:22:41;;;;;;;19.27;9.23;;;9.60;72.40;;;;;;4973025;28;20198;-76
2023/03/06 08:25:13;;;;;;;16.57;8.23;;;9.60;71.30;;;;;;4966890;28;20195;-76
2023/03/06 08:27:42;;;;;;;18.87;8.70;;;9.50;70.30;;;;;;4963477;28;20222;-77
2023/03/06 08:30:13;;;;;;;17.77;9.07;;;9.50;70.40;;;;;;4962183;28;20215;-76
2023/03/06 08:32:41;;;;;;;16.10;8.40;;;9.60;70.60;;;;;;4967672;28;20198;-76
2023/03/06 08:35:15;;;;;;;21.20;8.53;;;9.60;71.30;;;;;;4969272;28;20222;-76
2023/03/06 08:37:43;;;;;;;21.93;8.83;;;9.60;70.80;;;;;;4968459;28;20194;-76
2023/03/06 08:40:12;;;;;;;20.00;9.67;;;9.60;70.90;;;;;;4965951;28;20546;-77
2023/03/06 08:42:41;;;;;;;21.43;10.10;;;9.60;71.20;;;;;;4947866;28;20210;-79
2023/03/06 08:45:12;;;;;;;21.73;9.47;;;9.60;71.10;;;;;;4969148;28;20195;-76
2023/03/06 08:47:43;;;;;;;19.97;8.90;;;9.60;71.00;;;;;;4967719;28;20195;-75
2023/03/06 08:50:12;;;;;;;23.53;9.13;;;9.70;71.20;;;;;;4963676;28;20226;-76
2023/03/06 08:52:41;;;;;;;21.50;8.60;;;9.80;71.50;;;;;;4964042;28;20211;-77
2023/03/06 08:55:10;;;;;;;17.77;9.23;;;9.80;71.50;;;;;;4964444;28;20198;-79
2023/03/06 08:57:40;;;;;;;21.83;9.70;;;9.90;71.70;;;;;;4962368;28;20210;-78
2023/03/06 09:00:14;;;;;;;24.57;10.93;;;9.90;71.60;;;;;;4963510;28;20679;-76
2023/03/06 09:02:42;;;;;;;23.47;11.50;;;10.00;71.70;;;;;;4965300;28;20245;-77
2023/03/06 09:05:11;;;;;;;28.53;11.93;;;10.00;71.80;;;;;;4972582;28;20236;-75
2023/03/06 09:07:41;;;;;;;28.53;11.30;;;10.10;72.10;;;;;;4964668;28;20193;-75
2023/03/06 09:10:14;;;;;;;28.80;13.30;;;10.20;72.00;;;;;;4954800;28;20192;-75
2023/03/06 09:12:52;;;;;;;26.13;12.80;;;10.20;71.50;;;;;;4948635;28;20210;-77
2023/03/06 09:15:24;;;;;;;31.63;12.93;;;10.30;71.60;;;;;;4960783;28;20186;-77
2023/03/06 09:17:54;;;;;;;29.63;12.50;;;10.30;71.10;;;;;;4950500;28;20226;-75
2023/03/06 09:20:22;;;;;;;25.63;11.50;;;10.40;71.00;;;;;;4956655;28;20229;-76
2023/03/06 09:22:51;;;;;;;29.97;11.83;;;10.30;70.40;;;;;;4949997;28;20604;-76
2023/03/06 09:25:22;;;;;;;20.90;10.37;;;10.30;70.60;;;;;;4957265;28;20206;-76
2023/03/06 09:27:50;;;;;;;24.90;11.40;;;10.30;70.20;;;;;;4952522;28;20253;-75
2023/03/06 09:30:40;;;;;;;20.37;11.33;;;10.40;70.60;;;;;;4951330;28;20336;-76
2023/03/06 09:33:08;;;;;;;19.03;9.80;;;10.40;70.90;;;;;;4945673;28;20639;-76
2023/03/06 09:35:42;;;;;;;22.87;10.90;;;10.50;70.80;;;;;;4963450;28;20206;-75
2023/03/06 09:38:10;;;;;;;25.80;11.10;;;10.50;70.60;;;;;;4946704;28;20636;-77
2023/03/06 09:40:55;;;;;;;19.20;10.60;;;10.40;69.80;;;;;;4962467;28;20210;-75
2023/03/06 09:43:29;;;;;;;23.20;10.47;;;10.50;70.20;;;;;;4958643;28;20194;-77
2023/03/06 09:45:59;;;;;;;22.80;11.20;;;10.60;70.60;;;;;;4959471;28;20278;-75
2023/03/06 09:48:39;;;;;;;24.80;11.47;;;10.60;70.80;;;;;;4959618;28;20202;-75
2023/03/06 09:51:12;;;;;;;26.17;12.43;;;10.70;70.90;;;;;;4955438;28;20428;-75
2023/03/06 09:53:57;;;;;;;25.63;13.30;;;10.60;70.50;;;;;;4951093;28;20251;-74
2023/03/06 09:56:30;;;;;;;24.40;12.47;;;10.60;69.70;;;;;;4959132;28;20782;-75
2023/03/06 09:59:06;;;;;;;29.90;12.77;;;10.60;70.10;;;;;;4960841;28;20202;-75
2023/03/06 10:01:41;;;;;;;28.83;13.27;;;10.60;70.20;;;;;;4958838;28;20335;-76
2023/03/06 10:04:28;;;;;;;27.70;13.10;;;10.70;70.80;;;;;;4949565;28;20205;-75
2023/03/06 10:07:01;;;;;;;24.83;13.07;;;10.70;70.70;;;;;;4948124;28;20205;-74
2023/03/06 10:09:40;;;;;;;28.47;14.50;;;10.80;70.40;;;;;;4956161;28;20237;-75
2023/03/06 10:12:27;;;;;;;31.77;14.20;;;10.80;70.70;;;;;;4949894;28;20337;-76
2023/03/06 10:15:15;;;;;;;29.20;14.40;;;10.90;70.80;;;;;;4952560;28;20206;-76
2023/03/06 10:17:46;;;;;;;27.50;13.47;;;10.90;70.20;;;;;;4948285;28;20220;-77
2023/03/06 10:20:22;;;;;;;24.17;12.27;;;11.00;69.70;;;;;;4965408;28;20719;-73
2023/03/06 10:23:05;;;;;;;25.13;12.83;;;11.10;69.70;;;;;;4950845;28;20190;-75
2023/03/06 10:25:43;;;;;;;26.67;13.33;;;11.10;69.10;;;;;;4962480;28;20194;-75
2023/03/06 10:28:16;;;;;;;24.83;11.70;;;11.20;68.30;;;;;;4958212;28;20245;-75
2023/03/06 10:30:52;;;;;;;25.90;12.70;;;11.30;68.00;;;;;;4957870;28;20190;-76
2023/03/06 10:33:40;;;;;;;24.43;12.30;;;11.40;67.60;;;;;;4955910;28;20190;-75
2023/03/06 10:36:12;;;;;;;20.87;10.83;;;11.50;67.60;;;;;;4953796;28;20198;-74
2023/03/06 10:38:43;;;;;;;19.43;9.83;;;11.60;66.80;;;;;;4947627;28;20203;-76
2023/03/06 10:41:23;;;;;;;21.63;9.77;;;11.80;66.00;;;;;;4955956;28;20199;-75
2023/03/06 10:44:17;;;;;;;20.03;10.27;;;11.90;64.50;;;;;;4949296;28;20627;-74
2023/03/06 10:46:48;;;;;;;21.43;8.50;;;12.00;63.30;;;;;;4940951;28;20897;-75
2023/03/06 10:49:28;;;;;;;20.67;8.40;;;12.10;63.50;;;;;;4950903;28;20206;-76
2023/03/06 10:52:02;;;;;;;15.83;7.40;;;12.30;63.00;;;;;;4952301;28;20210;-75
2023/03/06 10:54:33;;;;;;;15.30;8.17;;;12.40;61.10;;;;;;4960084;29;20210;-75
2023/03/06 10:57:21;;;;;;;14.87;7.30;;;12.50;60.20;;;;;;4951011;28;20595;-76
2023/03/06 10:59:54;;;;;;;18.13;7.93;;;12.50;58.40;;;;;;4946186;28;20249;-76
2023/03/06 11:02:31;;;;;;;14.53;7.53;;;12.50;58.20;;;;;;4944094;28;20569;-76
2023/03/06 11:05:02;;;;;;;19.17;8.60;;;12.50;57.90;;;;;;4950414;28;20217;-74
2023/03/06 11:07:32;;;;;;;17.60;7.33;;;12.50;57.10;;;;;;4946754;28;20274;-74
2023/03/06 11:10:12;;;;;;;12.90;6.63;;;12.50;57.10;;;;;;4948357;28;20668;-75
2023/03/06 11:12:42;;;;;;;14.37;6.73;;;12.60;56.70;;;;;;4953917;29;20293;-75
2023/03/06 11:15:24;;;;;;;14.90;6.97;;;12.60;56.50;;;;;;4946808;28;20206;-74
2023/03/06 11:17:56;;;;;;;15.50;7.13;;;12.70;57.40;;;;;;4946530;28;20609;-74
2023/03/06 11:20:29;;;;;;;15.00;6.77;;;12.70;56.60;;;;;;4951097;28;20198;-75
2023/03/06 11:23:18;;;;;;;17.17;7.33;;;12.80;57.10;;;;;;4948889;28;20664;-74
2023/03/06 11:25:50;;;;;;;14.27;6.97;;;12.80;56.40;;;;;;4949863;28;20198;-76
2023/03/06 11:28:23;;;;;;;13.43;7.27;;;12.90;56.20;;;;;;4946394;28;20193;-76
2023/03/06 11:30:55;;;;;;;14.30;6.93;;;12.90;56.20;;;;;;4942876;28;20985;-75
2023/03/06 11:33:30;;;;;;;14.63;7.43;;;12.90;56.10;;;;;;4952551;28;20238;-75
2023/03/06 11:36:09;;;;;;;16.77;7.73;;;12.90;55.50;;;;;;4948420;28;20198;-77
2023/03/06 11:38:47;;;;;;;15.07;7.60;;;12.90;55.20;;;;;;4944795;28;20255;-76
2023/03/06 11:41:25;;;;;;;15.97;6.47;;;12.80;55.00;;;;;;4969901;28;20534;-75
2023/03/06 11:44:00;;;;;;;15.37;7.43;;;12.90;55.30;;;;;;4963255;28;20190;-76
2023/03/06 11:46:33;;;;;;;16.40;7.80;;;12.80;55.50;;;;;;4959671;29;20203;-76
2023/03/06 11:49:13;;;;;;;14.87;7.47;;;12.90;55.80;;;;;;4961632;28;20206;-77
2023/03/06 11:51:49;;;;;;;16.17;7.83;;;12.90;56.00;;;;;;4950321;28;20218;-76
2023/03/06 11:54:18;;;;;;;14.90;7.23;;;12.90;55.40;;;;;;4958766;28;20818;-77
2023/03/06 11:56:53;;;;;;;17.80;8.10;;;12.90;55.30;;;;;;4948113;28;20510;-76
2023/03/06 11:59:59;;;;;;;15.90;7.80;;;12.90;55.40;;;;;;4947975;28;20202;-76
2023/03/06 12:02:39;;;;;;;16.97;7.50;;;13.00;55.80;;;;;;4956848;28;20206;-76
2023/03/06 12:05:27;;;;;;;15.37;7.70;;;13.10;56.10;;;;;;4948973;28;20393;-76
2023/03/06 12:08:16;;;;;;;14.93;7.13;;;13.00;55.30;;;;;;4949780;28;20290;-75
2023/03/06 12:10:49;;;;;;;15.37;7.47;;;13.00;55.70;;;;;;4952386;28;20261;-75
2023/03/06 12:13:29;;;;;;;17.53;7.43;;;12.90;56.00;;;;;;4947151;28;20217;-77
2023/03/06 12:16:28;;;;;;;15.67;8.00;;;13.00;56.40;;;;;;4955519;29;20191;-76
2023/03/06 12:19:09;;;;;;;16.00;7.30;;;12.90;55.80;;;;;;4945598;28;20282;-75
2023/03/06 12:21:47;;;;;;;15.63;7.83;;;12.90;55.70;;;;;;4951668;28;20250;-76
2023/03/06 12:24:31;;;;;;;16.60;7.63;;;12.90;55.60;;;;;;4947804;28;20225;-75
2023/03/06 12:27:13;;;;;;;17.97;7.53;;;12.90;56.40;;;;;;4943583;28;20211;-75
2023/03/06 12:30:05;;;;;;;16.23;7.83;;;13.00;56.00;;;;;;4968205;28;20202;-76
2023/03/06 12:32:48;;;;;;;15.90;7.70;;;13.10;56.00;;;;;;4967990;29;20254;-76
2023/03/06 12:35:43;;;;;;;20.33;8.57;;;13.20;56.20;;;;;;4965644;28;20661;-75
2023/03/06 12:38:43;;;;;;;14.67;7.57;;;13.30;55.60;;;;;;4962323;29;20270;-75
2023/03/06 12:41:25;;;;;;;16.73;7.87;;;13.50;55.40;;;;;;4932090;28;20225;-76
2023/03/06 12:44:16;;;;;;;18.53;8.67;;;13.50;55.30;;;;;;4964202;28;20715;-76
2023/03/06 12:46:48;;;;;;;17.90;7.60;;;13.60;55.70;;;;;;4951552;29;20708;-75
2023/03/06 12:49:24;;;;;;;15.43;7.83;;;13.60;55.80;;;;;;4966544;29;20213;-75
2023/03/06 12:52:02;;;;;;;15.77;8.03;;;13.60;56.00;;;;;;4967281;29;20206;-76
2023/03/06 12:54:36;;;;;;;13.87;7.70;;;13.70;55.80;;;;;;4968417;28;21019;-75
2023/03/06 12:57:08;;;;;;;17.67;8.00;;;13.70;55.80;;;;;;4967369;28;20178;-77
2023/03/06 12:59:43;;;;;;;13.90;8.47;;;13.80;55.70;;;;;;4961974;28;20180;-76
2023/03/06 13:02:58;;;;;;;13.93;7.07;;;13.80;54.70;;;;;;4970145;28;20213;-75
2023/03/06 13:06:12;;;;;;;17.37;7.50;;;14.00;54.70;;;;;;4960733;28;20217;-74
2023/03/06 13:09:19;;;;;;;17.20;7.80;;;14.20;55.20;;;;;;4941827;29;20265;-75